createdAt,value
2023-02-18T00:38:01.371Z,97.27
2023-02-18T00:39:13.571Z,96.90
2023-02-18T00:40:18.595Z,96.82
2023-02-18T00:41:27.922Z,97.27
2023-02-18T00:42:32.475Z,97.48
2023-02-18T00:43:39.165Z,97.85
2023-02-18T00:44:49.994Z,97.53
2023-02-18T00:46:01.925Z,97.30
2023-02-18T00:47:13.288Z,97.87
2023-02-18T00:48:21.612Z,97.53
2023-02-18T00:49:26.132Z,97.04
2023-02-18T00:50:35.963Z,97.07
2023-02-18T00:51:45.385Z,97.10
2023-02-18T00:52:53.298Z,96.63
2023-02-18T00:54:02.694Z,96.33
2023-02-18T00:55:16.029Z,96.15
2023-02-18T00:56:21.888Z,95.80
2023-02-18T00:57:27.859Z,95.49
2023-02-18T00:58:41.041Z,94.91
2023-02-18T00:59:45.551Z,94.42
2023-02-18T01:00:50.664Z,94.28
2023-02-18T01:01:55.480Z,94.33
2023-02-18T01:03:00.138Z,94.03
2023-02-18T01:04:04.726Z,93.89
2023-02-18T01:05:17.842Z,94.17
2023-02-18T01:06:25.901Z,94.00
2023-02-18T01:07:31.806Z,93.73
2023-02-18T01:08:38.268Z,93.90
2023-02-18T01:09:42.497Z,94.14
2023-02-18T01:10:50.347Z,94.01
2023-02-18T01:11:59.570Z,93.79
2023-02-18T01:13:09.967Z,93.29
2023-02-18T01:14:14.983Z,93.36
2023-02-18T01:15:20.918Z,93.33
2023-02-18T01:16:27.056Z,94.00
2023-02-18T01:17:41.497Z,94.13
2023-02-18T01:18:53.992Z,95.01
2023-02-18T01:20:12.564Z,96.10
2023-02-18T01:21:18.913Z,97.28
2023-02-18T01:22:24.481Z,97.84
2023-02-18T01:23:41.750Z,98.52
2023-02-18T01:24:49.151Z,99.22
2023-02-18T01:25:59.179Z,99.50
2023-02-18T01:27:15.807Z,99.71
2023-02-18T01:28:25.712Z,100.00
2023-02-18T01:29:33.497Z,100.00
2023-02-18T01:30:38.443Z,99.00
2023-02-18T01:31:49.561Z,98.27
2023-02-18T01:34:40.037Z,97.21
2023-02-18T01:35:47.449Z,95.45
2023-02-18T01:36:52.181Z,94.45
2023-02-18T01:37:59.465Z,93.53
2023-02-18T01:39:37.657Z,93.28
2023-02-18T01:40:59.592Z,92.85
2023-02-18T01:42:34.191Z,91.18
2023-02-18T01:43:47.932Z,91.58
2023-02-18T01:45:42.684Z,88.41
2023-02-18T01:46:51.780Z,89.75
2023-02-18T01:48:04.858Z,90.14
2023-02-18T01:49:36.921Z,88.86
2023-02-18T01:50:49.397Z,88.78
2023-02-18T01:52:05.401Z,88.09
2023-02-18T01:55:16.583Z,87.21
2023-02-18T01:57:01.714Z,85.38
2023-02-18T01:58:19.670Z,85.35
2023-02-18T01:59:38.797Z,84.49
2023-02-18T02:00:49.060Z,83.70
2023-02-18T02:02:18.809Z,82.60
2023-02-18T02:03:30.164Z,82.39
2023-02-18T02:04:41.346Z,82.74
2023-02-18T02:05:49.932Z,81.73
2023-02-18T02:06:57.304Z,80.86
2023-02-18T02:08:04.881Z,80.32
2023-02-18T02:09:32.037Z,79.53
2023-02-18T02:10:54.394Z,78.32
2023-02-18T02:12:40.180Z,76.07
2023-02-18T02:14:25.408Z,74.54
2023-02-18T02:15:36.503Z,73.83
2023-02-18T02:17:42.810Z,72.00
2023-02-18T02:19:40.229Z,70.59
2023-02-18T02:21:24.262Z,70.60
2023-02-18T02:23:19.422Z,69.16
2023-02-18T02:25:00.090Z,68.79
2023-02-18T02:26:48.756Z,69.20
2023-02-18T02:30:37.883Z,68.08
2023-02-18T02:32:50.613Z,68.62
2023-02-18T02:35:49.759Z,67.11
2023-02-18T02:37:35.157Z,67.53
2023-02-18T02:39:33.980Z,67.44
2023-02-18T02:40:52.412Z,67.26
2023-02-18T02:42:18.377Z,66.43
2023-02-18T02:44:03.608Z,65.56
2023-02-18T02:45:34.400Z,66.28
2023-02-18T02:46:48.510Z,66.79
2023-02-18T02:48:15.231Z,67.07
2023-02-18T02:49:52.691Z,66.68
2023-02-18T02:51:43.003Z,66.48
2023-02-18T02:52:58.223Z,64.80
2023-02-18T02:54:22.875Z,63.67
2023-02-18T02:55:28.347Z,62.28
2023-02-18T02:56:44.484Z,62.39
2023-02-18T05:15:27.908Z,53.17
2023-02-18T05:16:32.606Z,51.90
2023-02-18T05:17:37.085Z,51.32
2023-02-18T05:18:41.617Z,49.93
2023-02-18T05:19:45.760Z,50.17
2023-02-18T05:20:50.244Z,49.71
2023-02-18T05:21:54.384Z,49.05
2023-02-18T05:22:59.128Z,49.23
2023-02-18T05:24:10.377Z,49.34
2023-02-18T05:25:15.330Z,48.93
2023-02-18T05:26:21.388Z,48.63
2023-02-18T05:27:26.426Z,48.81
2023-02-18T05:28:31.859Z,48.25
2023-02-18T05:29:36.617Z,48.37
2023-02-18T05:30:43.364Z,47.71
2023-02-18T05:31:49.667Z,47.84
2023-02-18T05:32:54.363Z,47.46
2023-02-18T05:33:59.727Z,47.04
2023-02-18T05:35:12.500Z,47.41
2023-02-18T05:36:18.842Z,46.71
2023-02-18T05:37:23.968Z,46.73
2023-02-18T05:38:29.628Z,46.68
2023-02-18T05:39:35.577Z,46.82
2023-02-18T05:40:40.224Z,46.83
2023-02-18T05:41:44.883Z,46.75
2023-02-18T05:42:52.618Z,46.73
2023-02-18T05:44:17.459Z,46.84
2023-02-18T05:45:22.606Z,47.00
2023-02-18T05:46:27.431Z,47.17
2023-02-18T05:47:32.449Z,47.29
2023-02-18T05:48:36.648Z,47.75
2023-02-18T05:49:43.373Z,47.79
2023-02-18T05:50:47.623Z,47.95
2023-02-18T05:51:55.655Z,48.33
2023-02-18T05:53:00.461Z,48.52
2023-02-18T05:54:06.606Z,48.77
2023-02-18T05:55:14.875Z,48.92
2023-02-18T05:56:19.363Z,49.33
2023-02-18T05:57:24.018Z,49.79
2023-02-18T05:58:28.333Z,49.83
2023-02-18T05:59:33.363Z,50.17
2023-02-18T06:00:37.545Z,50.21
2023-02-18T06:01:43.348Z,50.55
2023-02-18T06:02:49.246Z,50.69
2023-02-18T06:03:54.013Z,50.45
2023-02-18T06:04:58.489Z,49.13
2023-02-18T06:06:03.240Z,49.09
2023-02-18T06:07:12.052Z,48.28
2023-02-18T06:08:21.028Z,47.92
2023-02-18T06:09:25.564Z,47.90
2023-02-18T06:10:29.925Z,47.94
2023-02-18T06:11:35.804Z,47.72
2023-02-18T06:12:40.046Z,47.69
2023-02-18T06:13:48.432Z,48.04
2023-02-18T06:14:53.259Z,47.50
2023-02-18T06:15:59.721Z,47.91
2023-02-18T06:17:09.041Z,47.78
2023-02-18T06:18:13.416Z,47.17
2023-02-18T06:19:20.427Z,46.61
2023-02-18T06:20:30.215Z,46.48
2023-02-18T06:21:34.834Z,46.35
2023-02-18T06:22:39.122Z,46.41
2023-02-18T06:23:43.696Z,46.10
2023-02-18T06:24:48.249Z,45.70
2023-02-18T06:26:01.219Z,45.82
2023-02-18T06:27:10.417Z,45.74
2023-02-18T06:28:14.697Z,45.30
2023-02-18T06:29:19.004Z,45.57
2023-02-18T06:30:24.341Z,45.30
2023-02-18T06:31:29.314Z,45.32
2023-02-18T06:32:34.505Z,45.31
2023-02-18T06:33:38.992Z,45.24
2023-02-18T06:34:43.652Z,45.16
2023-02-18T06:36:00.581Z,45.25
2023-02-18T06:37:04.936Z,44.79
2023-02-18T06:38:13.182Z,43.72
2023-02-18T06:39:32.594Z,43.86
2023-02-18T06:40:48.691Z,43.71
2023-02-18T06:41:53.401Z,43.75
2023-02-18T06:42:57.553Z,44.17
2023-02-18T06:44:02.203Z,43.52
2023-02-18T06:45:11.686Z,43.62
2023-02-18T06:46:15.660Z,43.34
2023-02-18T06:47:20.329Z,43.54
2023-02-18T06:48:25.531Z,43.48
2023-02-18T06:49:30.814Z,43.55
2023-02-18T06:50:34.965Z,43.26
2023-02-18T06:51:39.036Z,42.94
2023-02-18T06:52:43.033Z,43.32
2023-02-18T06:53:47.803Z,43.52
2023-02-18T06:54:55.362Z,43.62
2023-02-18T06:55:59.770Z,43.12
2023-02-18T06:57:09.062Z,43.29
2023-02-18T06:58:15.352Z,43.55
2023-02-18T06:59:19.657Z,42.90
2023-02-18T07:00:27.097Z,43.20
2023-02-18T07:01:31.611Z,42.92
2023-02-18T07:02:36.050Z,42.98
2023-02-18T07:03:40.599Z,42.88
2023-02-18T07:04:46.340Z,42.57
2023-02-18T07:05:50.899Z,42.43
2023-02-18T07:06:55.221Z,42.49
2023-02-18T07:07:59.714Z,42.44
2023-02-18T07:09:12.507Z,42.63
2023-02-18T07:10:16.714Z,42.15
2023-02-18T07:11:21.137Z,42.41
2023-02-18T07:12:25.194Z,42.32
2023-02-18T07:13:29.579Z,42.28
2023-02-18T07:14:33.555Z,42.29
2023-02-18T07:15:37.629Z,42.23
2023-02-18T07:16:41.966Z,42.21
2023-02-18T07:17:46.252Z,41.91
2023-02-18T07:18:50.235Z,41.90
2023-02-18T07:19:55.945Z,41.79
2023-02-18T07:21:00.285Z,41.81
2023-02-18T07:22:04.488Z,41.71
2023-02-18T07:23:13.304Z,41.88
2023-02-18T07:24:17.948Z,41.76
2023-02-18T07:25:24.029Z,41.05
2023-02-18T07:26:28.792Z,40.57
2023-02-18T07:27:33.670Z,40.33
2023-02-18T07:28:41.194Z,40.58
2023-02-18T07:29:50.885Z,40.44
2023-02-18T07:30:55.161Z,40.71
2023-02-18T07:32:01.342Z,40.81
2023-02-18T07:33:11.495Z,40.67
2023-02-18T07:34:17.122Z,40.78
2023-02-18T07:35:23.017Z,40.47
2023-02-18T07:36:27.642Z,40.62
2023-02-18T07:37:33.465Z,40.71
2023-02-18T07:38:38.309Z,39.72
2023-02-18T07:39:45.023Z,40.39
2023-02-18T07:40:50.896Z,40.48
2023-02-18T07:41:56.000Z,40.01
2023-02-18T07:43:01.572Z,40.32
2023-02-18T07:44:15.634Z,40.16
2023-02-18T07:45:22.371Z,39.85
2023-02-18T07:46:28.558Z,40.52
2023-02-18T07:47:33.503Z,40.60
2023-02-18T07:48:38.555Z,40.56
2023-02-18T07:49:49.016Z,40.41
2023-02-18T07:50:57.728Z,40.36
2023-02-18T07:52:14.278Z,40.59
2023-02-18T07:53:20.708Z,40.73
2023-02-18T07:54:27.226Z,40.58
2023-02-18T07:55:50.967Z,40.66
2023-02-18T07:56:55.229Z,40.70
2023-02-18T07:58:02.686Z,40.28
2023-02-18T07:59:12.291Z,40.86
2023-02-18T08:00:17.425Z,40.75
2023-02-18T08:01:21.458Z,40.88
2023-02-18T08:02:27.257Z,41.06
2023-02-18T08:03:33.659Z,41.11
2023-02-18T08:04:38.711Z,40.72
2023-02-18T08:05:43.960Z,41.01
2023-02-18T08:06:54.290Z,41.05
2023-02-18T08:07:58.837Z,40.60
2023-02-18T08:09:05.202Z,40.51
2023-02-18T08:10:13.173Z,40.85
2023-02-18T08:11:19.665Z,40.62
2023-02-18T08:12:25.080Z,40.71
2023-02-18T08:13:31.616Z,40.83
2023-02-18T08:14:35.811Z,41.35
2023-02-18T08:15:41.078Z,41.15
2023-02-18T08:16:51.590Z,40.88
2023-02-18T08:17:56.163Z,40.65
2023-02-18T08:19:04.220Z,40.92
2023-02-18T08:20:14.478Z,40.76
2023-02-18T08:21:22.144Z,40.47
2023-02-18T08:22:26.235Z,40.69
2023-02-18T08:23:31.235Z,40.72
2023-02-18T08:24:36.217Z,40.43
2023-02-18T08:25:53.723Z,40.67
2023-02-18T08:27:01.224Z,40.62
2023-02-18T08:28:14.423Z,40.05
2023-02-18T08:29:19.843Z,40.16
2023-02-18T08:30:25.717Z,40.26
2023-02-18T08:31:32.191Z,40.56
2023-02-18T08:32:37.065Z,40.85
2023-02-18T08:33:42.840Z,40.80
2023-02-18T08:34:47.856Z,40.96
2023-02-18T08:35:54.760Z,40.58
2023-02-18T08:36:58.823Z,40.81
2023-02-18T08:38:03.954Z,40.84
2023-02-18T08:39:14.804Z,40.64
2023-02-18T13:18:58.651Z,75.06
2023-02-18T13:20:24.851Z,75.69
2023-02-18T13:21:32.916Z,76.58
2023-02-18T13:22:38.939Z,75.54
2023-02-18T13:23:57.976Z,76.36
2023-02-18T13:25:02.562Z,75.97
2023-02-18T13:26:14.443Z,76.02
2023-02-18T13:27:50.998Z,76.68
2023-02-18T13:29:30.467Z,76.27
2023-02-18T13:31:15.846Z,76.59
2023-02-18T13:33:10.304Z,76.88
2023-02-18T13:34:58.716Z,77.44
2023-02-18T13:36:38.248Z,77.85
2023-02-18T13:38:12.978Z,77.69
2023-02-18T13:39:22.401Z,77.57
2023-02-18T13:40:32.244Z,77.87
2023-02-18T13:41:52.920Z,77.58
2023-02-18T13:43:29.505Z,77.59
2023-02-18T13:44:55.198Z,78.74
2023-02-18T13:46:19.122Z,78.52
2023-02-18T13:47:50.728Z,78.59
2023-02-18T13:49:00.654Z,78.08
2023-02-18T13:50:23.350Z,78.23
2023-02-18T13:51:44.573Z,78.01
2023-02-18T13:53:03.863Z,78.82
2023-02-18T13:54:17.536Z,78.72
2023-02-18T13:55:35.802Z,78.46
2023-02-18T13:57:11.183Z,78.74
2023-02-18T13:58:24.790Z,79.87
2023-02-18T13:59:58.557Z,79.70
2023-02-18T14:01:11.864Z,79.13
2023-02-18T14:02:21.721Z,78.78
2023-02-18T14:03:52.370Z,79.02
2023-02-18T14:05:22.779Z,79.18
2023-02-18T14:07:27.594Z,79.72
2023-02-18T14:08:40.019Z,79.80
2023-02-18T14:09:48.469Z,80.50
2023-02-18T14:11:18.630Z,81.74
2023-02-18T14:12:40.527Z,82.46
2023-02-18T14:14:34.916Z,82.21
2023-02-18T14:16:00.313Z,82.52
2023-02-18T14:17:36.392Z,82.17
2023-02-18T14:18:40.470Z,83.05
2023-02-18T14:20:04.974Z,82.56
2023-02-18T14:21:12.981Z,83.19
2023-02-18T14:22:44.632Z,83.63
2023-02-18T14:24:01.105Z,82.76
2023-02-18T14:25:15.009Z,83.27
2023-02-18T14:26:33.791Z,83.23
2023-02-18T14:46:22.917Z,87.20
2023-02-18T14:49:54.504Z,87.88
2023-02-18T14:51:02.037Z,87.22
2023-02-18T14:52:28.305Z,87.03
2023-02-18T14:53:42.652Z,86.70
2023-02-18T14:54:49.980Z,86.61
2023-02-18T14:56:13.858Z,86.04
2023-02-18T14:57:31.070Z,86.20
2023-02-18T14:58:47.388Z,87.01
2023-02-18T15:00:02.495Z,87.55
2023-02-18T15:01:22.966Z,87.60
2023-02-18T15:02:33.385Z,87.80
2023-02-18T15:03:41.998Z,88.75
2023-02-18T15:04:47.898Z,88.50
2023-02-18T15:05:52.923Z,88.66
2023-02-18T15:07:14.056Z,88.39
2023-02-18T15:08:27.597Z,89.04
2023-02-18T15:09:32.261Z,88.16
2023-02-18T15:10:44.763Z,88.47
2023-02-18T15:12:25.624Z,89.44
2023-02-18T15:13:44.363Z,89.60
2023-02-18T15:14:54.278Z,90.43
2023-02-18T15:16:14.289Z,90.07
2023-02-18T15:17:44.520Z,90.11
2023-02-18T15:19:20.877Z,90.75
2023-02-18T15:20:41.607Z,91.03
2023-02-18T15:23:25.817Z,90.16
2023-02-18T15:24:44.137Z,90.39
2023-02-18T15:26:08.492Z,91.08
2023-02-18T15:27:21.843Z,90.33
2023-02-18T15:28:33.096Z,91.35
2023-02-18T15:29:41.155Z,91.23
2023-02-18T15:30:53.706Z,90.68
2023-02-18T15:31:59.995Z,90.22
2023-02-18T15:33:19.272Z,90.63
2023-02-18T15:34:44.635Z,91.12
2023-02-18T15:35:52.275Z,90.53
2023-02-18T15:37:03.072Z,91.17
2023-02-18T15:38:21.509Z,91.19
2023-02-18T15:39:29.780Z,91.40
2023-02-18T15:40:40.960Z,91.33
2023-02-18T15:41:57.686Z,92.94
2023-02-18T15:43:13.301Z,92.49
2023-02-18T15:44:38.533Z,92.54
2023-02-18T15:45:50.539Z,92.97
2023-02-18T15:46:56.377Z,92.38
2023-02-18T15:48:03.261Z,93.00
2023-02-18T15:49:21.170Z,92.28
2023-02-18T15:50:46.213Z,91.98
2023-02-18T15:52:02.004Z,91.71
2023-02-18T15:53:31.324Z,92.03
2023-02-18T15:54:43.708Z,92.12
2023-02-18T15:56:12.605Z,92.57
2023-02-18T15:57:20.894Z,92.92
2023-02-18T15:58:34.423Z,93.94
2023-02-18T15:59:58.404Z,95.39
2023-02-18T16:01:35.066Z,95.39
2023-02-18T16:03:15.839Z,95.64
2023-02-18T16:04:39.583Z,96.88
2023-02-18T16:05:43.958Z,97.02
2023-02-18T16:06:52.911Z,96.09
2023-02-18T16:08:10.495Z,95.53
2023-02-18T16:09:40.241Z,95.93
2023-02-18T16:11:15.005Z,96.35
2023-02-18T16:12:46.564Z,95.94
2023-02-18T16:13:54.816Z,95.40
2023-02-18T16:15:05.532Z,95.74
2023-02-18T16:16:35.181Z,95.86
2023-02-18T16:17:49.181Z,95.54
2023-02-18T16:18:57.469Z,95.32
2023-02-18T16:20:38.961Z,96.68
2023-02-18T16:21:47.831Z,97.77
2023-02-18T16:22:55.427Z,97.16
2023-02-18T16:24:03.306Z,98.01
2023-02-18T16:25:41.470Z,97.48
2023-02-18T16:26:47.440Z,97.94
2023-02-18T16:27:58.540Z,98.17
2023-02-18T16:29:16.232Z,98.74
2023-02-18T16:30:37.618Z,97.97
2023-02-18T16:31:50.227Z,98.28
2023-02-18T16:34:22.510Z,98.35
2023-02-18T16:35:43.960Z,97.96
2023-02-18T16:37:19.788Z,97.83
2023-02-18T16:38:26.462Z,98.03
2023-02-18T16:39:37.984Z,98.14
2023-02-18T16:40:42.431Z,97.68
2023-02-18T16:41:47.462Z,98.69
2023-02-18T16:42:53.002Z,98.20
2023-02-18T16:43:58.022Z,97.85
2023-02-18T16:45:08.778Z,97.73
2023-02-18T16:46:25.538Z,98.02
2023-02-18T16:47:49.830Z,99.25
2023-02-18T16:49:01.609Z,98.77
2023-02-18T16:50:21.391Z,99.76
2023-02-18T16:51:35.705Z,99.04
2023-02-18T16:52:40.645Z,99.95
2023-02-18T16:53:45.902Z,99.33
2023-02-18T16:54:53.796Z,99.03
2023-02-18T16:56:23.030Z,99.38
2023-02-18T16:57:29.342Z,99.56
2023-02-18T16:58:35.227Z,100.00
2023-02-18T16:59:39.052Z,100.00
2023-02-18T17:00:45.898Z,100.00
2023-02-18T17:01:56.367Z,100.00
2023-02-18T17:03:02.047Z,100.00
2023-02-18T17:05:31.461Z,100.00
2023-02-18T17:06:39.007Z,100.00
2023-02-18T17:07:43.289Z,100.00
2023-02-18T17:08:47.760Z,100.00
2023-02-18T17:09:52.026Z,100.00
2023-02-18T17:11:07.678Z,100.00
2023-02-18T17:12:14.026Z,100.00
2023-02-18T17:13:25.109Z,100.00
2023-02-18T17:14:34.030Z,100.00
2023-02-18T17:15:40.021Z,100.00
2023-02-18T17:16:55.410Z,100.00
2023-02-18T17:18:00.218Z,100.00
2023-02-18T17:19:04.459Z,100.00
2023-02-18T17:20:15.136Z,100.00
2023-02-18T17:21:24.462Z,100.00
2023-02-18T17:22:29.316Z,100.00
2023-02-18T17:23:33.741Z,100.00
2023-02-18T17:24:38.024Z,100.00
2023-02-18T17:25:43.429Z,100.00
2023-02-18T17:26:52.196Z,100.00
2023-02-18T17:27:57.887Z,100.00
2023-02-18T17:29:09.400Z,100.00
2023-02-18T17:30:14.946Z,100.00
2023-02-18T17:31:31.109Z,100.00
2023-02-18T17:32:47.097Z,100.00
2023-02-18T17:33:58.001Z,100.00
2023-02-18T17:35:08.209Z,100.00
2023-02-18T17:36:15.974Z,100.00
2023-02-18T17:37:22.439Z,100.00
2023-02-18T17:38:36.335Z,100.00
2023-02-18T17:39:43.700Z,100.00
2023-02-18T17:40:50.954Z,100.00
2023-02-18T17:41:55.627Z,100.00
2023-02-18T17:43:00.038Z,100.00
2023-02-18T17:44:18.851Z,100.00
2023-02-18T17:45:42.618Z,100.00
2023-02-18T17:46:55.246Z,100.00
2023-02-18T17:48:05.210Z,100.00
2023-02-18T17:49:14.156Z,100.00
2023-02-18T17:50:20.399Z,100.00
2023-02-18T17:51:30.214Z,100.00
2023-02-18T17:52:36.555Z,100.00
2023-02-18T17:53:40.408Z,100.00
2023-02-18T17:54:44.640Z,100.00
2023-02-18T17:55:59.632Z,100.00
2023-02-18T17:57:09.838Z,100.00
2023-02-18T17:58:15.952Z,100.00
2023-02-18T17:59:23.940Z,100.00
2023-02-18T18:00:37.679Z,100.00
2023-02-18T18:01:48.588Z,100.00
2023-02-18T18:02:54.035Z,100.00
2023-02-18T18:04:00.614Z,100.00
2023-02-18T18:05:08.468Z,100.00
2023-02-18T18:06:18.844Z,100.00
2023-02-18T18:07:24.245Z,100.00
2023-02-18T18:08:42.506Z,100.00
2023-02-18T18:09:58.355Z,100.00
2023-02-18T18:11:03.312Z,100.00
2023-02-18T18:12:10.333Z,100.00
2023-02-18T18:13:22.470Z,100.00
2023-02-18T18:14:29.940Z,100.00
2023-02-18T18:15:39.953Z,100.00
2023-02-18T18:16:44.201Z,100.00
2023-02-18T18:17:48.991Z,100.00
2023-02-18T18:18:53.016Z,100.00
2023-02-18T18:20:02.440Z,100.00
2023-02-18T18:21:42.093Z,100.00
2023-02-18T18:22:46.938Z,100.00
2023-02-18T18:23:51.567Z,100.00
2023-02-18T18:24:56.140Z,100.00
2023-02-18T18:26:06.290Z,100.00
2023-02-18T18:27:26.072Z,100.00
2023-02-18T18:28:33.822Z,100.00
2023-02-18T18:29:38.714Z,100.00
2023-02-18T18:30:58.138Z,100.00
2023-02-18T18:32:02.955Z,100.00
2023-02-18T18:33:31.462Z,100.00
2023-02-18T18:34:36.978Z,100.00
2023-02-18T18:35:41.459Z,100.00
2023-02-18T18:36:51.359Z,100.00
2023-02-18T18:37:59.826Z,100.00
2023-02-18T18:39:12.363Z,100.00
2023-02-18T18:40:18.478Z,100.00
2023-02-18T18:41:23.882Z,100.00
2023-02-18T18:42:32.627Z,100.00
2023-02-18T18:43:39.291Z,100.00
2023-02-18T18:44:46.892Z,100.00
2023-02-18T18:45:54.543Z,100.00
2023-02-18T18:46:59.877Z,100.00
2023-02-18T18:48:11.843Z,100.00
2023-02-18T18:49:16.471Z,100.00
2023-02-18T18:50:23.770Z,100.00
2023-02-18T18:51:34.619Z,100.00
2023-02-18T18:52:40.674Z,100.00
2023-02-18T18:53:44.890Z,100.00
2023-02-18T18:54:50.529Z,100.00
2023-02-18T18:56:02.797Z,100.00
2023-02-18T18:57:11.422Z,100.00
2023-02-18T18:58:21.931Z,100.00
2023-02-18T18:59:26.578Z,100.00
2023-02-18T19:00:48.212Z,100.00
2023-02-18T19:01:55.359Z,100.00
2023-02-18T19:03:10.010Z,100.00
2023-02-18T19:04:15.423Z,100.00
2023-02-18T19:05:36.974Z,100.00
2023-02-18T19:06:44.431Z,100.00
2023-02-18T19:07:52.041Z,100.00
2023-02-18T19:08:57.462Z,100.00
2023-02-18T19:10:02.063Z,100.00
2023-02-18T19:11:14.085Z,100.00
2023-02-18T19:12:25.068Z,100.00
2023-02-18T19:13:38.782Z,100.00
2023-02-18T19:14:43.385Z,100.00
2023-02-18T19:15:49.868Z,100.00
2023-02-18T19:16:56.583Z,100.00
2023-02-18T19:18:02.124Z,100.00
2023-02-18T19:19:13.003Z,100.00
2023-02-18T19:20:31.253Z,100.00
2023-02-18T19:21:36.756Z,100.00
2023-02-18T19:22:43.860Z,100.00
2023-02-18T19:23:48.890Z,100.00
2023-02-18T19:24:53.776Z,100.00
2023-02-18T19:26:02.850Z,100.00
2023-02-18T19:27:23.290Z,100.00
2023-02-18T19:28:28.404Z,100.00
2023-02-18T19:29:46.743Z,100.00
2023-02-18T19:30:57.157Z,100.00
2023-02-18T19:32:02.881Z,99.86
2023-02-18T19:33:11.493Z,99.81
2023-02-18T19:34:15.837Z,99.14
2023-02-18T19:35:26.247Z,99.00
2023-02-18T19:36:35.871Z,98.63
2023-02-18T19:37:42.747Z,98.58
2023-02-18T19:38:57.164Z,98.60
2023-02-18T19:40:25.422Z,98.21
2023-02-18T21:35:41.882Z,99.21
2023-02-18T21:36:46.318Z,99.14
2023-02-18T21:37:54.176Z,98.30
2023-02-18T21:39:05.139Z,98.49
2023-02-18T21:40:11.041Z,98.17
2023-02-18T21:41:15.733Z,97.92
2023-02-18T21:42:23.430Z,97.83
2023-02-18T21:43:27.405Z,97.86
2023-02-18T21:44:41.842Z,97.73
2023-02-18T21:45:46.718Z,97.89
2023-02-18T21:46:50.623Z,98.03
2023-02-18T21:47:54.816Z,97.93
2023-02-18T21:49:10.279Z,97.68
2023-02-18T21:50:15.726Z,97.58
2023-02-18T21:51:40.655Z,97.04
2023-02-18T21:52:44.644Z,96.75
2023-02-18T21:53:54.350Z,97.14
2023-02-18T21:55:00.283Z,97.00
2023-02-18T21:56:30.355Z,97.03
2023-02-18T21:57:34.909Z,96.97
2023-02-18T21:58:38.711Z,97.09
2023-02-18T21:59:45.372Z,97.24
2023-02-18T22:00:58.492Z,97.38
2023-02-18T22:02:13.433Z,97.38
2023-02-18T22:03:17.383Z,97.78
2023-02-18T22:04:25.551Z,97.75
2023-02-18T22:05:33.733Z,98.34
2023-02-18T22:06:38.035Z,98.79
2023-02-18T22:07:42.092Z,99.31
2023-02-18T22:08:53.121Z,99.16
2023-02-18T22:09:57.002Z,99.70
2023-02-18T22:11:18.728Z,100.00
2023-02-18T22:12:25.315Z,100.00
2023-02-18T22:13:29.222Z,100.00
2023-02-18T22:14:33.377Z,100.00
2023-02-18T22:15:39.788Z,100.00
2023-02-18T22:16:45.112Z,100.00
2023-02-18T22:17:49.438Z,100.00
2023-02-18T22:18:53.469Z,100.00
2023-02-18T22:19:57.237Z,100.00
2023-02-18T22:21:09.785Z,100.00
2023-02-18T22:22:13.736Z,100.00
2023-02-18T22:23:18.946Z,100.00
2023-02-18T22:24:22.599Z,100.00
2023-02-18T22:25:26.416Z,100.00
2023-02-18T22:26:30.708Z,100.00
2023-02-18T22:27:38.183Z,100.00
2023-02-18T22:28:42.372Z,100.00
2023-02-18T22:29:50.630Z,100.00
2023-02-18T22:30:54.462Z,100.00
2023-02-18T22:31:58.326Z,99.77
2023-02-18T22:33:02.011Z,99.36
2023-02-18T22:34:12.868Z,99.72
2023-02-18T22:35:20.056Z,99.37
2023-02-18T22:36:26.190Z,99.01
2023-02-18T22:37:30.450Z,99.17
2023-02-18T22:38:37.236Z,99.29
2023-02-18T22:39:41.354Z,98.80
2023-02-18T22:40:45.318Z,98.01
2023-02-18T22:41:52.701Z,97.92
2023-02-18T22:42:56.246Z,97.91
2023-02-18T22:44:12.458Z,97.75
2023-02-18T22:45:16.385Z,97.69
2023-02-18T22:46:20.049Z,97.17
2023-02-18T22:47:23.950Z,97.48
2023-02-18T22:48:27.976Z,96.88
2023-02-18T22:49:32.105Z,96.69
2023-02-18T22:50:38.599Z,97.23
2023-02-18T22:51:45.430Z,97.52
2023-02-18T22:52:49.217Z,97.41
2023-02-18T22:53:57.058Z,97.96
2023-02-18T22:55:01.088Z,97.78
2023-02-18T22:56:24.256Z,97.92
2023-02-18T22:57:36.254Z,98.23
2023-02-18T22:58:44.674Z,98.53
2023-02-18T22:59:52.992Z,98.42
2023-02-18T23:00:58.879Z,98.38
2023-02-18T23:02:02.608Z,98.53
2023-02-18T23:03:10.745Z,98.55
2023-02-18T23:04:18.203Z,98.74
2023-02-18T23:05:22.046Z,98.77
2023-02-18T23:06:26.334Z,98.48
2023-02-18T23:07:30.095Z,98.63
2023-02-18T23:08:33.959Z,98.76
2023-02-18T23:09:38.064Z,99.11
2023-02-18T23:10:44.797Z,99.01
2023-02-18T23:11:58.285Z,99.44
2023-02-18T23:13:02.176Z,99.04
2023-02-18T23:14:18.680Z,98.93
2023-02-18T23:15:22.413Z,98.97
2023-02-18T23:16:26.176Z,98.81
2023-02-18T23:17:29.790Z,99.20
2023-02-18T23:18:35.710Z,99.38
2023-02-18T23:19:48.181Z,99.25
2023-02-18T23:21:11.890Z,99.13
2023-02-18T23:22:34.221Z,99.81
2023-02-18T23:23:40.788Z,100.00
2023-02-18T23:24:47.020Z,100.00
2023-02-18T23:25:55.807Z,99.94
2023-02-18T23:26:59.669Z,100.00
2023-02-18T23:28:03.493Z,100.00
2023-02-18T23:29:07.562Z,100.00
2023-02-18T23:30:12.672Z,100.00
2023-02-18T23:31:26.459Z,100.00
2023-02-18T23:32:32.116Z,99.88
2023-02-18T23:33:36.093Z,99.65
2023-02-18T23:34:56.628Z,99.53
2023-02-18T23:36:18.270Z,99.63
2023-02-18T23:37:43.829Z,99.20
2023-02-18T23:38:55.272Z,98.78
2023-02-18T23:40:00.910Z,98.64
2023-02-18T23:41:05.597Z,98.14
2023-02-18T23:42:10.498Z,98.46
2023-02-18T23:43:15.581Z,98.06
2023-02-18T23:44:26.523Z,98.11
2023-02-18T23:45:30.656Z,98.27
2023-02-18T23:46:35.290Z,97.95
2023-02-18T23:47:45.405Z,98.17
2023-02-18T23:48:54.932Z,98.35
2023-02-18T23:50:01.733Z,98.04
2023-02-18T23:51:08.577Z,98.29
2023-02-18T23:52:13.969Z,98.07
2023-02-18T23:53:18.138Z,98.08
2023-02-18T23:54:25.477Z,98.37
2023-02-18T23:55:29.819Z,98.46
2023-02-18T23:56:33.826Z,98.70
2023-02-18T23:57:38.930Z,98.57
2023-02-18T23:58:46.741Z,98.25
2023-02-18T23:59:51.016Z,98.30
